Time;durP1;ratioP1;P1;durP2;ratioP2;P2;SDS_P1;SDS_P2;PMS_P1;PMS_P2;Temp;Humidity;BMP_temperature;BMP_pressure;BME280_temperature;BME280_humidity;BME280_pressure;Samples;Min_cycle;Max_cycle;Signal;HPM_P1;HPM_P2
2023/02/17 00:01:56;;;;;;;;;;;;;;;6.65;47.38;99739.84;4979444;28;19924;-78
2023/02/17 00:04:21;;;;;;;;;;;;;;;6.63;47.68;99735.66;4995954;28;19921;-77
2023/02/17 00:06:46;;;;;;;;;;;;;;;6.61;46.87;99740.06;5013524;28;20014;-77
2023/02/17 00:09:12;;;;;;;;;;;;;;;6.61;47.46;99735.72;4995806;28;19921;-77
2023/02/17 00:11:37;;;;;;;;;;;;;;;6.60;47.68;99735.78;4979439;28;19918;-77
2023/02/17 00:14:02;;;;;;;;;;;;;;;6.60;47.65;99736.63;4996053;28;19928;-77
2023/02/17 00:16:28;;;;;;;;;;;;;;;6.59;47.76;99727.16;4979239;28;20281;-78
2023/02/17 00:18:54;;;;;;;;;;;;;;;6.58;47.55;99725.47;4979494;28;19945;-78
2023/02/17 00:21:20;;;;;;;;;;;;;;;6.57;47.93;99733.34;4995835;28;19917;-77
2023/02/17 00:23:46;;;;;;;;;;;;;;;6.55;47.07;99724.75;4995144;28;19953;-77
2023/02/17 00:26:11;;;;;;;;;;;;;;;6.52;47.86;99726.59;4995725;28;19932;-77
2023/02/17 00:28:37;;;;;;;;;;;;;;;6.36;47.86;99699.63;4979218;28;19918;-79
2023/02/17 00:31:09;;;;;;;;;;;;;;;6.52;47.95;99717.97;4995551;28;20407;-77
2023/02/17 00:33:34;;;;;;;;;;;;;;;6.50;47.81;99715.44;4995621;28;19918;-77
2023/02/17 00:36:01;;;;;;;;;;;;;;;6.51;47.75;99716.28;4979143;28;20331;-77
2023/02/17 00:38:27;;;;;;;;;;;;;;;6.49;47.93;99703.38;4995015;28;19924;-77
2023/02/17 00:40:53;;;;;;;;;;;;;;;6.48;47.75;99699.13;4979211;28;19917;-80
2023/02/17 00:43:18;;;;;;;;;;;;;;;6.47;48.18;99696.59;4995570;28;20395;-79
2023/02/17 00:45:43;;;;;;;;;;;;;;;6.45;47.90;99711.34;4978823;28;20004;-80
2023/02/17 00:48:09;;;;;;;;;;;;;;;6.44;47.66;99705.34;5013248;28;20365;-79
2023/02/17 00:50:34;;;;;;;;;;;;;;;6.42;48.17;99699.38;4979142;28;19924;-79
2023/02/17 00:53:00;;;;;;;;;;;;;;;6.41;47.75;99692.50;5013236;28;19925;-78
2023/02/17 00:55:25;;;;;;;;;;;;;;;6.41;48.19;99686.47;4995544;28;19917;-78
2023/02/17 00:57:50;;;;;;;;;;;;;;;6.36;47.98;99685.81;4979154;28;19940;-78
2023/02/17 01:00:16;;;;;;;;;;;;;;;6.36;48.11;99683.22;4979067;28;20356;-78
2023/02/17 01:02:41;;;;;;;;;;;;;;;6.33;47.98;99673.84;4979058;28;19929;-77
2023/02/17 01:05:06;;;;;;;;;;;;;;;6.34;48.14;99676.38;4995645;28;20440;-77
2023/02/17 01:07:32;;;;;;;;;;;;;;;6.33;48.17;99668.66;4968420;28;19926;-78
2023/02/17 01:09:57;;;;;;;;;;;;;;;6.29;48.40;99659.31;4993126;28;19917;-77
2023/02/17 01:12:22;;;;;;;;;;;;;;;6.28;47.96;99658.47;4959742;28;20301;-77
2023/02/17 01:14:48;;;;;;;;;;;;;;;6.25;48.21;99656.03;4975619;28;19922;-77
2023/02/17 01:17:13;;;;;;;;;;;;;;;6.24;47.80;99653.50;4959997;28;19925;-77
2023/02/17 01:19:38;;;;;;;;;;;;;;;6.23;48.32;99646.63;4976142;28;20000;-80
2023/02/17 01:22:03;;;;;;;;;;;;;;;6.21;48.34;99644.09;4975531;28;19940;-80
2023/02/17 01:24:29;;;;;;;;;;;;;;;6.19;48.79;99638.13;4975676;28;19918;-81
2023/02/17 01:26:54;;;;;;;;;;;;;;;6.16;48.08;99631.31;4993401;28;19925;-79
2023/02/17 01:29:19;;;;;;;;;;;;;;;6.16;48.35;99631.31;4992890;28;19929;-79
2023/02/17 01:31:45;;;;;;;;;;;;;;;6.15;48.13;99627.06;4975965;28;19921;-80
2023/02/17 01:34:10;;;;;;;;;;;;;;;6.16;48.48;99628.72;4959627;28;19917;-80
2023/02/17 01:36:35;;;;;;;;;;;;;;;6.18;48.16;99625.25;4962804;28;19925;-80
2023/02/17 01:39:01;;;;;;;;;;;;;;;6.18;47.81;99628.66;4992998;28;19929;-79
2023/02/17 01:41:26;;;;;;;;;;;;;;;6.16;48.46;99618.34;4997483;28;19961;-79
2023/02/17 01:44:08;;;;;;;;;;;;;;;6.14;48.11;99615.00;4998024;28;20307;-79
2023/02/17 01:46:34;;;;;;;;;;;;;;;6.14;48.19;99617.59;4998593;28;19924;-79
2023/02/17 01:48:59;;;;;;;;;;;;;;;6.11;48.28;99624.66;4982318;28;19918;-79
2023/02/17 01:51:25;;;;;;;;;;;;;;;6.10;48.62;99623.84;4982197;28;19925;-79
2023/02/17 01:53:52;;;;;;;;;;;;;;;6.09;48.81;99616.97;4998389;28;19917;-79
2023/02/17 01:56:17;;;;;;;;;;;;;;;6.09;48.26;99614.38;4982014;28;20007;-81
2023/02/17 01:58:44;;;;;;;;;;;;;;;6.10;48.39;99610.03;5015702;28;20418;-80
2023/02/17 02:01:09;;;;;;;;;;;;;;;6.07;48.64;99608.41;4998452;28;20373;-80
2023/02/17 02:03:35;;;;;;;;;;;;;;;6.10;48.33;99608.28;4998333;28;19925;-81
2023/02/17 02:06:00;;;;;;;;;;;;;;;6.09;48.68;99608.34;4981563;28;19921;-80
2023/02/17 02:08:27;;;;;;;;;;;;;;;6.06;48.45;99611.91;4982004;28;19972;-81
2023/02/17 02:10:52;;;;;;;;;;;;;;;6.06;48.62;99605.91;4998072;28;19925;-80
2023/02/17 02:13:17;;;;;;;;;;;;;;;6.04;48.23;99607.69;4998169;28;20407;-78
2023/02/17 02:15:45;;;;;;;;;;;;;;;6.02;48.63;99604.34;4997951;28;20442;-78
2023/02/17 02:18:18;;;;;;;;;;;;;;;6.00;48.17;99608.75;4997721;28;19917;-78
2023/02/17 02:21:09;;;;;;;;;;;;;;;6.01;48.21;99610.41;5015520;28;19917;-78
2023/02/17 02:23:37;;;;;;;;;;;;;;;5.97;48.52;99607.94;4998545;28;20337;-77
2023/02/17 02:26:09;;;;;;;;;;;;;;;5.95;48.36;99607.16;4997632;28;19933;-78
2023/02/17 02:28:34;;;;;;;;;;;;;;;5.94;48.74;99613.25;5014904;28;19924;-77
2023/02/17 02:31:02;;;;;;;;;;;;;;;5.93;48.63;99610.72;5015001;28;19917;-77
2023/02/17 02:33:32;;;;;;;;;;;;;;;5.90;48.54;99601.34;4997602;28;19917;-77
2023/02/17 02:35:57;;;;;;;;;;;;;;;5.88;48.77;99605.75;4981309;28;19918;-78
2023/02/17 02:38:41;;;;;;;;;;;;;;;5.90;48.61;99595.28;5015506;28;19917;-77
2023/02/17 02:41:07;;;;;;;;;;;;;;;5.88;48.73;99594.53;5015392;28;20450;-77
2023/02/17 02:43:32;;;;;;;;;;;;;;;5.86;48.75;99596.34;5015405;28;19922;-77
2023/02/17 02:45:57;;;;;;;;;;;;;;;5.85;48.84;99594.66;4997067;28;19918;-77
2023/02/17 02:48:22;;;;;;;;;;;;;;;5.84;49.09;99598.19;4997317;28;19924;-77
2023/02/17 02:50:57;;;;;;;;;;;;;;;5.82;48.93;99587.88;4997133;28;19975;-77
2023/02/17 02:53:40;;;;;;;;;;;;;;;5.79;49.02;99585.41;4997222;28;19921;-78
2023/02/17 02:56:14;;;;;;;;;;;;;;;5.76;49.27;99591.56;4996989;28;19984;-78
2023/02/17 02:58:42;;;;;;;;;;;;;;;5.75;48.80;99589.03;4997420;28;19918;-77
2023/02/17 03:01:26;;;;;;;;;;;;;;;5.75;49.44;99591.63;5014600;28;19968;-77
2023/02/17 03:04:00;;;;;;;;;;;;;;;5.73;49.39;99590.84;5015179;28;20393;-77
2023/02/17 03:06:26;;;;;;;;;;;;;;;5.71;49.43;99585.75;5014598;28;20377;-76
2023/02/17 03:09:12;;;;;;;;;;;;;;;5.71;48.79;99588.34;4980605;28;19918;-77
2023/02/17 03:11:37;;;;;;;;;;;;;;;5.68;49.54;99588.47;5014307;28;20380;-77
2023/02/17 03:14:03;;;;;;;;;;;;;;;5.69;49.46;99584.13;4996875;28;19925;-76
2023/02/17 03:16:29;;;;;;;;;;;;;;;5.69;49.61;99587.53;4996946;28;19936;-76
2023/02/17 03:18:54;;;;;;;;;;;;;;;5.68;49.67;99593.63;4996758;28;20385;-76
2023/02/17 03:21:19;;;;;;;;;;;;;;;5.69;49.44;99597.91;4996698;28;19914;-75
2023/02/17 03:23:45;;;;;;;;;;;;;;;5.70;49.60;99588.41;4979918;28;19917;-78
2023/02/17 03:26:10;;;;;;;;;;;;;;;5.70;49.00;99597.00;4996848;28;19928;-76
2023/02/17 03:28:35;;;;;;;;;;;;;;;5.65;49.30;99593.78;4996516;28;19924;-80
2023/02/17 03:31:01;;;;;;;;;;;;;;;5.63;49.29;99595.59;5014115;28;19925;-77
2023/02/17 03:33:26;;;;;;;;;;;;;;;5.65;49.57;99592.94;5013961;28;20446;-78
2023/02/17 03:35:51;;;;;;;;;;;;;;;5.64;49.36;99597.25;4979965;28;19957;-76
2023/02/17 03:38:16;;;;;;;;;;;;;;;5.62;49.48;99593.91;4996870;28;19967;-77
2023/02/17 03:40:42;;;;;;;;;;;;;;;5.61;49.50;99598.25;4996707;28;19928;-77
2023/02/17 03:43:07;;;;;;;;;;;;;;;5.59;49.60;99599.22;4980146;28;19940;-77
2023/02/17 03:45:34;;;;;;;;;;;;;;;5.57;49.88;99607.03;5014114;28;19917;-77
2023/02/17 03:47:59;;;;;;;;;;;;;;;5.55;49.88;99595.91;4996632;28;20016;-76
2023/02/17 03:50:25;;;;;;;;;;;;;;;5.56;49.89;99600.16;4996084;28;20016;-77
2023/02/17 03:52:50;;;;;;;;;;;;;;;5.58;50.11;99597.50;4996228;28;19924;-77
2023/02/17 03:55:15;;;;;;;;;;;;;;;5.58;49.70;99600.09;4995887;28;20375;-77
2023/02/17 03:57:40;;;;;;;;;;;;;;;5.53;50.21;99602.06;4979210;28;19925;-79
2023/02/17 04:00:06;;;;;;;;;;;;;;;5.53;50.14;99602.06;4979580;28;19924;-77
2023/02/17 04:02:31;;;;;;;;;;;;;;;5.51;50.07;99607.28;5013656;28;20073;-76
2023/02/17 04:04:57;;;;;;;;;;;;;;;5.51;49.70;99602.13;4979749;28;20071;-76
2023/02/17 04:07:22;;;;;;;;;;;;;;;5.49;49.71;99608.25;5013472;28;19922;-77
2023/02/17 04:09:47;;;;;;;;;;;;;;;5.50;50.40;99613.38;4995626;28;19925;-76
2023/02/17 04:12:13;;;;;;;;;;;;;;;5.47;50.04;99607.47;4996561;28;19918;-77
2023/02/17 04:14:38;;;;;;;;;;;;;;;5.47;49.76;99613.53;4995839;28;20408;-76
2023/02/17 04:17:03;;;;;;;;;;;;;;;5.46;49.87;99611.81;4996068;28;19921;-76
2023/02/17 04:19:28;;;;;;;;;;;;;;;5.42;49.94;99605.06;4995650;28;19956;-76
2023/02/17 04:21:54;;;;;;;;;;;;;;;5.42;49.99;99605.94;4995719;28;20035;-76
2023/02/17 04:24:19;;;;;;;;;;;;;;;5.40;49.95;99599.13;4995896;28;20359;-76
2023/02/17 04:26:44;;;;;;;;;;;;;;;5.39;50.10;99597.44;4979232;28;19924;-76
2023/02/17 04:29:10;;;;;;;;;;;;;;;5.37;50.00;99600.09;4995103;28;19922;-77
2023/02/17 04:31:35;;;;;;;;;;;;;;;5.33;50.13;99606.31;4995776;28;19917;-77
2023/02/17 04:34:00;;;;;;;;;;;;;;;5.33;50.09;99610.63;4995910;28;19921;-78
2023/02/17 04:36:25;;;;;;;;;;;;;;;5.32;49.60;99611.56;4996041;28;19918;-78
2023/02/17 04:38:51;;;;;;;;;;;;;;;5.32;49.94;99603.78;4979241;28;20381;-77
2023/02/17 04:41:16;;;;;;;;;;;;;;;5.31;49.91;99610.69;4979586;28;20133;-77
2023/02/17 04:43:41;;;;;;;;;;;;;;;5.31;49.43;99602.09;4995719;28;19921;-76
2023/02/17 04:46:07;;;;;;;;;;;;;;;5.31;49.67;99605.50;4995549;28;19917;-76
2023/02/17 04:48:32;;;;;;;;;;;;;;;5.30;49.82;99600.41;5012871;28;20462;-77
2023/02/17 04:50:57;;;;;;;;;;;;;;;5.27;50.22;99610.91;4978733;28;19953;-76
2023/02/17 04:53:23;;;;;;;;;;;;;;;5.24;49.67;99604.94;4995292;28;19917;-77
2023/02/17 04:55:49;;;;;;;;;;;;;;;5.24;50.00;99609.28;4979694;28;20304;-77
2023/02/17 04:58:14;;;;;;;;;;;;;;;5.23;49.99;99610.16;4979219;28;19917;-77
2023/02/17 05:00:40;;;;;;;;;;;;;;;5.22;50.15;99608.50;4979007;28;19971;-77
2023/02/17 05:03:05;;;;;;;;;;;;;;;5.21;49.98;99601.63;4995419;28;19971;-77
2023/02/17 05:05:30;;;;;;;;;;;;;;;5.24;49.77;99606.69;4976515;28;19922;-75
2023/02/17 05:07:56;;;;;;;;;;;;;;;5.26;50.01;99607.44;4975700;28;20020;-76
2023/02/17 05:10:21;;;;;;;;;;;;;;;5.29;50.12;99611.69;4978731;28;19918;-75
2023/02/17 05:12:46;;;;;;;;;;;;;;;5.32;50.04;99612.38;4997267;28;20070;-77
2023/02/17 05:15:11;;;;;;;;;;;;;;;5.33;49.80;99611.50;4963260;28;20289;-78
2023/02/17 05:17:37;;;;;;;;;;;;;;;5.40;49.73;99609.50;4963298;28;20372;-78
2023/02/17 05:20:03;;;;;;;;;;;;;;;5.44;49.70;99614.47;4963297;28;19921;-75
2023/02/17 05:22:28;;;;;;;;;;;;;;;5.56;49.45;99607.09;4979321;28;19924;-76
2023/02/17 05:24:53;;;;;;;;;;;;;;;5.76;48.90;99604.50;4979324;28;19949;-75
2023/02/17 05:27:18;;;;;;;;;;;;;;;6.04;48.11;99608.56;4979003;28;20019;-74
2023/02/17 05:29:44;;;;;;;;;;;;;;;6.24;47.82;99612.00;4978966;28;19969;-74
2023/02/17 05:32:09;;;;;;;;;;;;;;;6.47;47.02;99614.41;4978867;28;19924;-74
2023/02/17 05:34:35;;;;;;;;;;;;;;;6.88;46.16;99618.63;4979149;28;19921;-75
2023/02/17 05:37:00;;;;;;;;;;;;;;;7.29;45.49;99613.19;4963247;28;19918;-78
2023/02/17 05:39:25;;;;;;;;;;;;;;;7.54;44.52;99624.97;4962944;28;20491;-78
2023/02/17 05:41:50;;;;;;;;;;;;;;;7.76;44.25;99632.53;4979194;28;20313;-77
2023/02/17 05:44:16;;;;;;;;;;;;;;;8.07;43.91;99625.78;4979127;28;19921;-78
2023/02/17 05:46:41;;;;;;;;;;;;;;;8.26;43.31;99628.25;4963270;28;19922;-78
2023/02/17 05:49:07;;;;;;;;;;;;;;;8.44;42.48;99623.88;4996477;28;19991;-76
2023/02/17 05:51:32;;;;;;;;;;;;;;;8.52;42.15;99626.91;4962514;28;19972;-78
2023/02/17 05:53:58;;;;;;;;;;;;;;;8.57;42.05;99618.84;4996351;28;19925;-77
2023/02/17 05:56:23;;;;;;;;;;;;;;;8.63;41.82;99618.50;4962768;28;19917;-74
2023/02/17 05:58:48;;;;;;;;;;;;;;;8.87;41.31;99622.41;4979000;28;19918;-73
2023/02/17 06:01:13;;;;;;;;;;;;;;;9.30;42.19;99634.78;4978762;28;19925;-72
2023/02/17 06:03:39;;;;;;;;;;;;;;;9.50;41.61;99638.00;4996296;28;19918;-84
2023/02/17 06:06:04;;;;;;;;;;;;;;;9.94;40.37;99639.78;4962197;28;19924;-76
2023/02/17 06:08:30;;;;;;;;;;;;;;;10.21;39.45;99642.50;4965236;28;19922;-86
2023/02/17 06:10:55;;;;;;;;;;;;;;;10.38;38.99;99644.13;4986635;28;19929;-81
2023/02/17 06:13:20;;;;;;;;;;;;;;;10.57;38.58;99630.78;4962709;28;20422;-81
2023/02/17 06:15:46;;;;;;;;;;;;;;;10.83;38.01;99638.78;4995980;28;20421;-82
2023/02/17 06:18:11;;;;;;;;;;;;;;;10.96;37.88;99641.44;4978465;28;19924;-74
2023/02/17 06:20:37;;;;;;;;;;;;;;;11.07;37.44;99639.00;4995356;28;19918;-78
2023/02/17 06:23:02;;;;;;;;;;;;;;;11.45;40.81;99638.31;4961936;28;20352;-79
2023/02/17 06:25:27;;;;;;;;;;;;;;;12.27;44.97;99645.94;4962136;28;20340;-74
2023/02/17 06:27:53;;;;;;;;;;;;;;;13.11;52.23;99654.03;4995776;28;19924;-73
2023/02/17 06:30:19;;;;;;;;;;;;;;;14.06;46.64;99651.44;4961652;28;19980;-70
2023/02/17 06:32:45;;;;;;;;;;;;;;;14.58;41.19;99641.28;4978332;28;20364;-73
2023/02/17 06:35:10;;;;;;;;;;;;;;;14.97;39.28;99644.38;4978094;28;19957;-76
2023/02/17 06:37:36;;;;;;;;;;;;;;;15.34;45.44;99641.44;4962836;28;20377;-79
2023/02/17 06:40:02;;;;;;;;;;;;;;;15.97;40.27;99652.03;4962202;28;20362;-76
2023/02/17 06:42:28;;;;;;;;;;;;;;;16.36;40.13;99644.31;4974290;28;19924;-77
2023/02/17 06:44:54;;;;;;;;;;;;;;;16.38;36.63;99639.75;4996163;28;19918;-78
2023/02/17 06:47:20;;;;;;;;;;;;;;;16.38;34.89;99639.75;4982629;28;19924;-86
2023/02/17 06:49:45;;;;;;;;;;;;;;;16.44;33.86;99643.66;5001161;28;19953;-88
2023/02/17 06:52:10;;;;;;;;;;;;;;;16.52;32.84;99650.91;5017957;28;19983;-85
2023/02/17 06:54:36;;;;;;;;;;;;;;;16.86;46.72;99646.19;5003957;28;19988;-87
2023/02/17 06:57:01;;;;;;;;;;;;;;;17.03;40.07;99649.13;4998647;28;20443;-85
2023/02/17 06:59:26;;;;;;;;;;;;;;;16.95;39.03;99649.81;4998689;28;19976;-81
2023/02/17 07:01:52;;;;;;;;;;;;;;;17.03;43.42;99654.41;4998730;28;19928;-88
2023/02/17 07:04:17;;;;;;;;;;;;;;;17.11;38.84;99646.63;4976131;28;19982;-78
2023/02/17 07:06:42;;;;;;;;;;;;;;;17.28;38.85;99643.31;4972926;28;20054;-78
2023/02/17 07:09:12;;;;;;;;;;;;;;;17.16;31.71;99639.16;4973223;28;19921;-78
2023/02/17 07:11:37;;;;;;;;;;;;;;;16.23;29.76;99646.34;4973104;28;19918;-76
2023/02/17 07:14:03;;;;;;;;;;;;;;;15.29;29.97;99636.53;4975622;28;20380;-82
2023/02/17 07:16:28;;;;;;;;;;;;;;;16.28;42.94;99652.88;4976729;28;19914;-76
2023/02/17 07:18:54;;;;;;;;;;;;;;;16.91;39.50;99646.59;4994852;28;19930;-85
2023/02/17 07:21:19;;;;;;;;;;;;;;;17.34;36.40;99648.03;4960372;28;19918;-78
2023/02/17 07:23:45;;;;;;;;;;;;;;;17.98;34.61;99647.59;4976524;28;20020;-79
2023/02/17 07:26:10;;;;;;;;;;;;;;;18.51;33.01;99646.19;4975475;28;20412;-80
2023/02/17 07:28:36;;;;;;;;;;;;;;;18.75;31.83;99650.94;4958785;28;20054;-85
2023/02/17 07:31:08;;;;;;;;;;;;;;;18.62;30.75;99657.41;4975978;28;20278;-87
2023/02/17 07:33:33;;;;;;;;;;;;;;;18.55;30.06;99652.84;4958700;28;19922;-81
2023/02/17 07:35:59;;;;;;;;;;;;;;;18.76;39.78;99653.44;4995543;28;20411;-81
2023/02/17 07:38:24;;;;;;;;;;;;;;;18.93;35.61;99662.44;4972444;28;20008;-80
2023/02/17 07:40:49;;;;;;;;;;;;;;;19.03;32.86;99661.56;4973803;28;19918;-81
2023/02/17 07:43:15;;;;;;;;;;;;;;;19.18;35.55;99660.03;4980378;28;19922;-80
2023/02/17 07:45:41;;;;;;;;;;;;;;;19.36;36.50;99661.88;4996088;28;19918;-81
2023/02/17 07:48:06;;;;;;;;;;;;;;;19.51;34.16;99658.56;4972606;28;19918;-76
2023/02/17 07:50:32;;;;;;;;;;;;;;;19.74;32.01;99658.06;4992605;28;19929;-77
2023/02/17 07:52:58;;;;;;;;;;;;;;;19.88;31.34;99657.53;4967344;28;19926;-80
2023/02/17 07:55:23;;;;;;;;;;;;;;;20.18;29.54;99658.06;4958746;28;19926;-80
2023/02/17 07:57:49;;;;;;;;;;;;;;;20.46;28.23;99649.91;4972612;28;19919;-78
2023/02/17 08:00:15;;;;;;;;;;;;;;;20.57;27.66;99651.47;4974670;28;19929;-80
2023/02/17 08:02:41;;;;;;;;;;;;;;;20.83;26.68;99646.13;4965876;28;19918;-78
2023/02/17 08:05:06;;;;;;;;;;;;;;;21.16;25.80;99651.53;4973616;28;20496;-83
2023/02/17 08:07:31;;;;;;;;;;;;;;;21.36;24.72;99652.03;4965303;28;19925;-85
2023/02/17 08:15:25;;;;;;;;;;;;;;;21.41;23.86;99647.06;4988233;28;20356;-81
2023/02/17 08:17:52;;;;;;;;;;;;;;;21.46;23.42;99646.59;4990734;28;19921;-80
2023/02/17 08:20:17;;;;;;;;;;;;;;;21.49;23.36;99647.09;4973282;28;20345;-80
2023/02/17 08:22:42;;;;;;;;;;;;;;;21.40;23.37;99648.06;4973625;28;19921;-81
2023/02/17 08:25:08;;;;;;;;;;;;;;;21.39;23.49;99642.91;4974142;28;19917;-79
2023/02/17 08:27:33;;;;;;;;;;;;;;;21.41;23.21;99640.91;4972796;28;19925;-79
2023/02/17 08:29:58;;;;;;;;;;;;;;;21.55;34.30;99647.44;4973622;28;20391;-79
2023/02/17 08:32:24;;;;;;;;;;;;;;;21.61;31.71;99647.59;4992135;28;20399;-78
2023/02/17 08:34:49;;;;;;;;;;;;;;;21.55;27.83;99652.75;4982602;28;19918;-74
2023/02/17 08:37:14;;;;;;;;;;;;;;;21.82;27.92;99659.53;4990269;28;19922;-75
2023/02/17 08:39:40;;;;;;;;;;;;;;;22.17;30.99;99649.50;4973789;28;19918;-76
2023/02/17 08:42:05;;;;;;;;;;;;;;;22.36;26.86;99649.16;4983003;28;19968;-75
2023/02/17 08:44:30;;;;;;;;;;;;;;;22.59;25.40;99645.75;4988899;28;19918;-76
2023/02/17 08:46:56;;;;;;;;;;;;;;;22.91;29.03;99647.44;4957438;28;19921;-76
2023/02/17 08:49:22;;;;;;;;;;;;;;;23.25;29.31;99640.94;4981102;28;19976;-76
2023/02/17 08:51:48;;;;;;;;;;;;;;;23.52;32.02;99652.06;4980960;28;20000;-76
2023/02/17 08:54:14;;;;;;;;;;;;;;;23.80;33.72;99646.16;4949740;28;20469;-79
2023/02/17 08:56:39;;;;;;;;;;;;;;;24.00;30.58;99655.34;4957404;28;19961;-78
2023/02/17 08:59:05;;;;;;;;;;;;;;;24.05;29.54;99657.44;4956678;28;19960;-79
2023/02/17 09:01:31;;;;;;;;;;;;;;;24.16;29.94;99654.34;4981495;28;20009;-74
2023/02/17 09:03:56;;;;;;;;;;;;;;;24.26;31.28;99659.41;4990896;28;20300;-75
2023/02/17 09:06:22;;;;;;;;;;;;;;;24.43;29.52;99660.06;4981517;28;19972;-71
2023/02/17 09:08:48;;;;;;;;;;;;;;;24.61;27.18;99656.19;4981303;28;19918;-75
2023/02/17 09:11:15;;;;;;;;;;;;;;;24.72;27.32;99650.38;4977160;28;20309;-84
2023/02/17 09:13:43;;;;;;;;;;;;;;;24.85;25.28;99652.38;4974110;28;20009;-78
2023/02/17 09:16:11;;;;;;;;;;;;;;;24.93;24.92;99652.25;4981369;28;19988;-71
2023/02/17 09:18:36;;;;;;;;;;;;;;;25.19;25.78;99653.56;4954056;28;19925;-76
2023/02/17 09:21:09;;;;;;;;;;;;;;;25.30;27.48;99642.38;4991078;28;19922;-78
2023/02/17 09:23:34;;;;;;;;;;;;;;;25.50;28.10;99644.44;4979252;28;19917;-77
2023/02/17 09:26:04;;;;;;;;;;;;;;;25.71;31.68;99639.06;4966659;28;19928;-84
2023/02/17 09:28:30;;;;;;;;;;;;;;;25.93;29.81;99639.00;4976225;28;20464;-83
2023/02/17 09:30:56;;;;;;;;;;;;;;;26.08;27.55;99636.28;4970104;28;19929;-78
2023/02/17 09:33:22;;;;;;;;;;;;;;;26.53;25.98;99640.22;4972176;28;19926;-76
2023/02/17 09:35:48;;;;;;;;;;;;;;;26.96;24.91;99644.50;4972562;28;19925;-79
2023/02/17 09:38:13;;;;;;;;;;;;;;;27.13;25.41;99639.59;4970833;28;19922;-77
2023/02/17 09:40:46;;;;;;;;;;;;;;;27.18;23.81;99634.47;4972841;28;19925;-77
2023/02/17 09:43:14;;;;;;;;;;;;;;;27.26;26.90;99623.56;4972093;28;20380;-81
2023/02/17 09:45:40;;;;;;;;;;;;;;;27.20;24.08;99621.69;4956586;28;20429;-82
2023/02/17 09:48:08;;;;;;;;;;;;;;;27.05;23.83;99621.06;4936045;29;19930;-82
2023/02/17 09:50:37;;;;;;;;;;;;;;;26.74;21.28;99624.25;4953742;29;19918;-81
2023/02/17 09:53:04;;;;;;;;;;;;;;;26.59;22.69;99627.88;4935786;28;19919;-80
2023/02/17 09:55:34;;;;;;;;;;;;;;;26.60;25.45;99620.66;4971553;28;19922;-81
2023/02/17 09:58:05;;;;;;;;;;;;;;;26.60;25.11;99618.00;4976386;28;19981;-80
2023/02/17 10:00:44;;;;;;;;;;;;;;;26.57;25.72;99621.91;4975297;28;20396;-79
2023/02/17 10:03:09;;;;;;;;;;;;;;;26.57;24.03;99603.16;4975891;28;19966;-80
2023/02/17 10:05:38;;;;;;;;;;;;;;;26.51;24.00;99604.78;4980165;28;20437;-74
2023/02/17 10:08:09;;;;;;;;;;;;;;;26.62;24.22;99607.94;4981372;28;19925;-79
2023/02/17 10:10:42;;;;;;;;;;;;;;;26.56;24.07;99601.50;4977836;28;19965;-76
2023/02/17 10:13:09;;;;;;;;;;;;;;;26.63;25.31;99596.16;4978800;28;19921;-83
2023/02/17 10:15:35;;;;;;;;;;;;;;;25.17;20.85;99580.78;4977467;28;19929;-73
2023/02/17 10:18:04;;;;;;;;;;;;;;;25.53;23.29;99577.22;4994980;28;19924;-78
2023/02/17 10:20:40;;;;;;;;;;;;;;;25.80;24.53;99578.25;4962072;28;19925;-79
2023/02/17 10:23:07;;;;;;;;;;;;;;;26.05;25.24;99569.78;4962525;28;20348;-83
2023/02/17 10:25:38;;;;;;;;;;;;;;;26.12;26.24;99566.09;4962213;28;19921;-83
2023/02/17 10:28:10;;;;;;;;;;;;;;;26.22;26.24;99563.09;4979114;28;19922;-75
2023/02/17 10:31:10;;;;;;;;;;;;;;;26.20;26.85;99558.94;4993465;28;19922;-77
2023/02/17 10:34:05;;;;;;;;;;;;;;;26.24;27.52;99552.19;4934460;29;19919;-77
2023/02/17 10:36:36;;;;;;;;;;;;;;;26.24;25.99;99555.66;4878036;29;20383;-77
2023/02/17 10:39:14;;;;;;;;;;;;;;;26.24;28.55;99546.84;4878092;29;19927;-75
2023/02/17 10:41:39;;;;;;;;;;;;;;;26.20;25.59;99538.34;4853157;29;20022;-76
2023/02/17 10:44:08;;;;;;;;;;;;;;;26.12;25.69;99535.84;4829068;29;20007;-78
2023/02/17 10:46:33;;;;;;;;;;;;;;;25.97;27.91;99538.69;4828828;29;19934;-77
2023/02/17 10:48:59;;;;;;;;;;;;;;;25.87;29.47;99530.13;4844362;29;19920;-78
2023/02/17 10:51:25;;;;;;;;;;;;;;;25.80;29.32;99532.78;4859308;29;19926;-76
2023/02/17 10:53:51;;;;;;;;;;;;;;;25.68;28.46;99537.03;4859163;29;19928;-77
2023/02/17 10:56:18;;;;;;;;;;;;;;;25.55;28.23;99533.22;4828742;29;20484;-76
2023/02/17 10:59:05;;;;;;;;;;;;;;;25.38;27.53;99537.22;4843763;29;19927;-74
2023/02/17 11:01:30;;;;;;;;;;;;;;;25.21;31.98;99532.13;4858190;29;20394;-76
2023/02/17 11:03:59;;;;;;;;;;;;;;;25.08;30.00;99521.31;4858015;29;20022;-81
2023/02/17 11:06:25;;;;;;;;;;;;;;;25.01;30.29;99525.78;4842171;29;19931;-80
2023/02/17 11:08:50;;;;;;;;;;;;;;;24.92;32.08;99522.41;4898820;29;19931;-80
2023/02/17 11:11:19;;;;;;;;;;;;;;;24.86;29.62;99512.50;4894734;29;19923;-73
2023/02/17 11:14:02;;;;;;;;;;;;;;;24.66;26.85;99515.00;4977163;28;19933;-78
2023/02/17 11:16:28;;;;;;;;;;;;;;;24.46;25.88;99510.22;4960501;28;20381;-79
2023/02/17 11:18:54;;;;;;;;;;;;;;;24.27;24.66;99508.97;4960545;28;19921;-76
2023/02/17 11:21:20;;;;;;;;;;;;;;;24.12;23.93;99505.53;4977678;28;20005;-79
2023/02/17 11:23:57;;;;;;;;;;;;;;;24.04;23.02;99506.44;4977066;28;19957;-83
2023/02/17 11:26:27;;;;;;;;;;;;;;;23.93;22.89;99499.75;4978188;28;19921;-81
2023/02/17 11:28:52;;;;;;;;;;;;;;;23.85;22.30;99497.19;4943671;28;19934;-86
2023/02/17 11:31:22;;;;;;;;;;;;;;;23.72;22.11;99492.47;4957941;28;20516;-76
2023/02/17 11:33:49;;;;;;;;;;;;;;;23.56;21.64;99487.31;4974296;28;19925;-79
2023/02/17 11:36:22;;;;;;;;;;;;;;;23.40;21.78;99485.63;4961158;28;19918;-79
2023/02/17 11:38:48;;;;;;;;;;;;;;;23.27;21.82;99486.25;4993895;28;20300;-83
2023/02/17 11:41:13;;;;;;;;;;;;;;;23.15;21.77;99475.25;4976820;28;19924;-79
2023/02/17 11:43:38;;;;;;;;;;;;;;;22.98;21.92;99469.19;4992295;28;20294;-82
2023/02/17 11:46:04;;;;;;;;;;;;;;;22.85;22.24;99468.94;4990945;28;19925;-77
2023/02/17 11:48:35;;;;;;;;;;;;;;;22.64;24.13;99466.97;4991698;28;19918;-76
2023/02/17 11:51:21;;;;;;;;;;;;;;;22.46;25.63;99464.59;4978005;28;19924;-85
2023/02/17 11:53:49;;;;;;;;;;;;;;;22.36;24.55;99463.00;4991097;28;19922;-82
2023/02/17 11:56:22;;;;;;;;;;;;;;;22.18;24.26;99465.88;4992553;28;19925;-77
2023/02/17 11:58:53;;;;;;;;;;;;;;;22.02;24.40;99457.97;4975456;28;19934;-76
2023/02/17 12:01:21;;;;;;;;;;;;;;;21.92;24.02;99450.22;4993338;28;19917;-77
2023/02/17 12:03:59;;;;;;;;;;;;;;;21.80;27.60;99443.63;4992008;28;20004;-76
2023/02/17 12:06:45;;;;;;;;;;;;;;;21.73;25.89;99445.31;4991900;28;19934;-79
2023/02/17 12:09:13;;;;;;;;;;;;;;;21.58;25.54;99440.72;4993137;28;20037;-77
2023/02/17 12:11:41;;;;;;;;;;;;;;;21.45;25.32;99438.56;4991034;28;19918;-80
2023/02/17 12:14:12;;;;;;;;;;;;;;;21.33;24.88;99438.09;4992905;28;19918;-79
2023/02/17 12:16:55;;;;;;;;;;;;;;;21.20;24.36;99442.28;4993203;28;20366;-80
2023/02/17 12:19:28;;;;;;;;;;;;;;;21.05;24.69;99429.69;4992594;28;19918;-81
2023/02/17 12:22:14;;;;;;;;;;;;;;;20.91;24.26;99425.88;4975141;28;20801;-79
2023/02/17 12:24:42;;;;;;;;;;;;;;;20.75;24.42;99415.28;4975642;28;19925;-80
2023/02/17 12:27:08;;;;;;;;;;;;;;;20.64;24.39;99413.78;4991415;28;19921;-79
2023/02/17 12:29:41;;;;;;;;;;;;;;;20.51;24.50;99416.91;4991192;28;19921;-80
2023/02/17 12:32:35;;;;;;;;;;;;;;;20.43;24.48;99419.56;4991144;28;19922;-81
2023/02/17 12:35:02;;;;;;;;;;;;;;;20.29;24.73;99405.13;4980508;28;20412;-83
2023/02/17 12:37:30;;;;;;;;;;;;;;;20.20;24.58;99403.44;4981426;28;19918;-79
2023/02/17 12:40:07;;;;;;;;;;;;;;;20.11;24.37;99399.94;4981012;28;20352;-81
2023/02/17 12:42:36;;;;;;;;;;;;;;;20.01;24.26;99396.59;4964234;28;19922;-83
2023/02/17 12:45:04;;;;;;;;;;;;;;;19.91;24.11;99396.75;4966058;28;19925;-79
2023/02/17 12:47:33;;;;;;;;;;;;;;;19.81;23.72;99394.22;4979141;28;19918;-76
2023/02/17 12:50:00;;;;;;;;;;;;;;;19.72;23.48;99379.28;4993005;28;20486;-80
2023/02/17 12:52:27;;;;;;;;;;;;;;;19.63;22.95;99373.09;4974164;28;19969;-80
2023/02/17 12:55:11;;;;;;;;;;;;;;;19.58;22.72;99372.75;4975201;28;19921;-83
2023/02/17 12:57:54;;;;;;;;;;;;;;;19.52;23.12;99376.03;4990830;28;19922;-74
2023/02/17 13:00:22;;;;;;;;;;;;;;;19.47;23.39;99373.06;4989655;28;20012;-73